sensor_id;sensor_type;location;lat;lon;timestamp;P1;durP1;ratioP1;P2;durP2;ratioP2
52730;SDS011;38624;53.242;6.974;2023-08-08T00:00:46;5.27;;;3.10;;
52730;SDS011;38624;53.242;6.974;2023-08-08T00:03:13;7.22;;;2.97;;
52730;SDS011;38624;53.242;6.974;2023-08-08T00:05:39;5.15;;;2.45;;
52730;SDS011;38624;53.242;6.974;2023-08-08T00:08:05;3.92;;;2.80;;
52730;SDS011;38624;53.242;6.974;2023-08-08T00:10:31;8.32;;;3.33;;
52730;SDS011;38624;53.242;6.974;2023-08-08T00:12:57;8.23;;;3.45;;
52730;SDS011;38624;53.242;6.974;2023-08-08T00:15:22;7.88;;;3.47;;
52730;SDS011;38624;53.242;6.974;2023-08-08T00:17:48;6.63;;;3.63;;
52730;SDS011;38624;53.242;6.974;2023-08-08T00:20:14;8.77;;;3.47;;
52730;SDS011;38624;53.242;6.974;2023-08-08T00:22:40;5.38;;;3.58;;
52730;SDS011;38624;53.242;6.974;2023-08-08T00:25:06;6.38;;;3.42;;
52730;SDS011;38624;53.242;6.974;2023-08-08T00:27:32;8.37;;;3.33;;
52730;SDS011;38624;53.242;6.974;2023-08-08T00:29:58;6.45;;;2.90;;
52730;SDS011;38624;53.242;6.974;2023-08-08T00:32:25;8.05;;;3.28;;
52730;SDS011;38624;53.242;6.974;2023-08-08T00:34:50;7.28;;;3.70;;
52730;SDS011;38624;53.242;6.974;2023-08-08T00:37:16;7.88;;;3.55;;
52730;SDS011;38624;53.242;6.974;2023-08-08T00:39:42;7.47;;;3.13;;
52730;SDS011;38624;53.242;6.974;2023-08-08T00:42:11;6.63;;;3.33;;
52730;SDS011;38624;53.242;6.974;2023-08-08T00:44:37;8.88;;;2.88;;
52730;SDS011;38624;53.242;6.974;2023-08-08T00:47:03;8.55;;;3.92;;
52730;SDS011;38624;53.242;6.974;2023-08-08T00:49:29;8.43;;;3.78;;
52730;SDS011;38624;53.242;6.974;2023-08-08T00:51:55;6.23;;;3.70;;
52730;SDS011;38624;53.242;6.974;2023-08-08T00:54:20;8.48;;;4.20;;
52730;SDS011;38624;53.242;6.974;2023-08-08T00:56:46;6.20;;;3.67;;
52730;SDS011;38624;53.242;6.974;2023-08-08T00:59:12;10.07;;;4.00;;
52730;SDS011;38624;53.242;6.974;2023-08-08T01:01:40;8.13;;;4.20;;
52730;SDS011;38624;53.242;6.974;2023-08-08T01:04:06;8.55;;;4.00;;
52730;SDS011;38624;53.242;6.974;2023-08-08T01:06:35;7.40;;;3.70;;
52730;SDS011;38624;53.242;6.974;2023-08-08T01:12:04;9.60;;;3.80;;
52730;SDS011;38624;53.242;6.974;2023-08-08T01:14:32;8.00;;;4.13;;
52730;SDS011;38624;53.242;6.974;2023-08-08T01:17:00;8.05;;;3.97;;
52730;SDS011;38624;53.242;6.974;2023-08-08T01:19:28;6.47;;;4.32;;
52730;SDS011;38624;53.242;6.974;2023-08-08T01:21:57;8.75;;;4.18;;
52730;SDS011;38624;53.242;6.974;2023-08-08T01:24:27;9.07;;;4.85;;
52730;SDS011;38624;53.242;6.974;2023-08-08T01:27:04;12.20;;;4.72;;
52730;SDS011;38624;53.242;6.974;2023-08-08T01:29:31;5.43;;;3.38;;
52730;SDS011;38624;53.242;6.974;2023-08-08T01:31:56;4.78;;;3.20;;
52730;SDS011;38624;53.242;6.974;2023-08-08T01:34:22;6.55;;;4.05;;
52730;SDS011;38624;53.242;6.974;2023-08-08T01:36:49;9.85;;;4.53;;
52730;SDS011;38624;53.242;6.974;2023-08-08T01:41:43;6.93;;;3.60;;
52730;SDS011;38624;53.242;6.974;2023-08-08T01:44:10;4.05;;;2.90;;
52730;SDS011;38624;53.242;6.974;2023-08-08T01:46:37;6.40;;;4.15;;
52730;SDS011;38624;53.242;6.974;2023-08-08T01:49:03;8.07;;;4.22;;
52730;SDS011;38624;53.242;6.974;2023-08-08T01:51:29;7.47;;;3.78;;
52730;SDS011;38624;53.242;6.974;2023-08-08T01:53:55;6.83;;;4.33;;
52730;SDS011;38624;53.242;6.974;2023-08-08T01:56:21;6.50;;;3.73;;
52730;SDS011;38624;53.242;6.974;2023-08-08T01:58:47;6.35;;;3.60;;
52730;SDS011;38624;53.242;6.974;2023-08-08T02:01:12;7.53;;;4.35;;
52730;SDS011;38624;53.242;6.974;2023-08-08T02:03:38;10.37;;;4.27;;
52730;SDS011;38624;53.242;6.974;2023-08-08T02:06:04;7.40;;;4.10;;
52730;SDS011;38624;53.242;6.974;2023-08-08T02:08:29;7.65;;;3.75;;
52730;SDS011;38624;53.242;6.974;2023-08-08T02:10:55;6.13;;;3.42;;
52730;SDS011;38624;53.242;6.974;2023-08-08T02:13:21;8.27;;;4.60;;
52730;SDS011;38624;53.242;6.974;2023-08-08T02:15:46;5.93;;;3.40;;
52730;SDS011;38624;53.242;6.974;2023-08-08T02:18:12;6.32;;;4.40;;
52730;SDS011;38624;53.242;6.974;2023-08-08T02:20:38;9.15;;;4.20;;
52730;SDS011;38624;53.242;6.974;2023-08-08T02:23:03;6.55;;;3.63;;
52730;SDS011;38624;53.242;6.974;2023-08-08T02:25:29;9.85;;;4.47;;
52730;SDS011;38624;53.242;6.974;2023-08-08T02:27:56;6.38;;;3.97;;
52730;SDS011;38624;53.242;6.974;2023-08-08T02:30:22;9.15;;;4.10;;
52730;SDS011;38624;53.242;6.974;2023-08-08T02:32:47;5.53;;;3.60;;
52730;SDS011;38624;53.242;6.974;2023-08-08T02:35:13;11.25;;;4.45;;
52730;SDS011;38624;53.242;6.974;2023-08-08T02:37:39;5.45;;;3.88;;
52730;SDS011;38624;53.242;6.974;2023-08-08T02:40:05;6.65;;;3.88;;
52730;SDS011;38624;53.242;6.974;2023-08-08T02:42:31;8.35;;;4.15;;
52730;SDS011;38624;53.242;6.974;2023-08-08T02:44:57;10.95;;;4.70;;
52730;SDS011;38624;53.242;6.974;2023-08-08T02:47:23;6.50;;;4.20;;
52730;SDS011;38624;53.242;6.974;2023-08-08T02:49:49;7.72;;;4.00;;
52730;SDS011;38624;53.242;6.974;2023-08-08T02:52:15;11.73;;;4.10;;
52730;SDS011;38624;53.242;6.974;2023-08-08T02:54:41;7.65;;;4.65;;
52730;SDS011;38624;53.242;6.974;2023-08-08T02:57:06;7.50;;;4.03;;
52730;SDS011;38624;53.242;6.974;2023-08-08T02:59:35;9.07;;;4.18;;
52730;SDS011;38624;53.242;6.974;2023-08-08T03:02:01;11.73;;;4.25;;
52730;SDS011;38624;53.242;6.974;2023-08-08T03:04:28;7.60;;;3.92;;
52730;SDS011;38624;53.242;6.974;2023-08-08T03:06:54;6.07;;;3.53;;
52730;SDS011;38624;53.242;6.974;2023-08-08T03:09:20;9.48;;;4.10;;
52730;SDS011;38624;53.242;6.974;2023-08-08T03:11:46;13.10;;;4.20;;
52730;SDS011;38624;53.242;6.974;2023-08-08T03:14:12;8.93;;;3.70;;
52730;SDS011;38624;53.242;6.974;2023-08-08T03:16:38;7.65;;;3.50;;
52730;SDS011;38624;53.242;6.974;2023-08-08T03:19:04;9.55;;;4.25;;
52730;SDS011;38624;53.242;6.974;2023-08-08T03:21:30;9.03;;;3.90;;
52730;SDS011;38624;53.242;6.974;2023-08-08T03:23:56;8.35;;;4.20;;
52730;SDS011;38624;53.242;6.974;2023-08-08T03:26:22;7.63;;;3.78;;
52730;SDS011;38624;53.242;6.974;2023-08-08T03:28:48;7.32;;;3.65;;
52730;SDS011;38624;53.242;6.974;2023-08-08T03:31:16;9.70;;;3.50;;
52730;SDS011;38624;53.242;6.974;2023-08-08T03:33:42;5.13;;;3.28;;
52730;SDS011;38624;53.242;6.974;2023-08-08T03:36:09;7.32;;;3.75;;
52730;SDS011;38624;53.242;6.974;2023-08-08T03:38:34;9.13;;;3.10;;
52730;SDS011;38624;53.242;6.974;2023-08-08T03:41:01;10.45;;;3.95;;
52730;SDS011;38624;53.242;6.974;2023-08-08T03:43:27;8.82;;;4.00;;
52730;SDS011;38624;53.242;6.974;2023-08-08T03:45:52;6.70;;;3.55;;
52730;SDS011;38624;53.242;6.974;2023-08-08T03:48:18;9.18;;;3.63;;
52730;SDS011;38624;53.242;6.974;2023-08-08T03:50:44;7.80;;;3.67;;
52730;SDS011;38624;53.242;6.974;2023-08-08T03:53:11;8.10;;;3.40;;
52730;SDS011;38624;53.242;6.974;2023-08-08T03:55:37;9.83;;;3.60;;
52730;SDS011;38624;53.242;6.974;2023-08-08T03:58:03;8.63;;;3.13;;
52730;SDS011;38624;53.242;6.974;2023-08-08T04:00:29;9.90;;;3.80;;
52730;SDS011;38624;53.242;6.974;2023-08-08T04:02:54;6.90;;;2.75;;
52730;SDS011;38624;53.242;6.974;2023-08-08T04:05:20;8.70;;;3.40;;
52730;SDS011;38624;53.242;6.974;2023-08-08T04:07:46;7.60;;;2.75;;
52730;SDS011;38624;53.242;6.974;2023-08-08T04:10:11;6.82;;;2.92;;
52730;SDS011;38624;53.242;6.974;2023-08-08T04:12:38;6.75;;;3.25;;
52730;SDS011;38624;53.242;6.974;2023-08-08T04:15:04;9.63;;;3.13;;
52730;SDS011;38624;53.242;6.974;2023-08-08T04:17:30;5.80;;;3.30;;
52730;SDS011;38624;53.242;6.974;2023-08-08T04:19:55;10.18;;;2.72;;
52730;SDS011;38624;53.242;6.974;2023-08-08T04:22:21;8.18;;;2.75;;
52730;SDS011;38624;53.242;6.974;2023-08-08T04:24:47;8.63;;;2.60;;
52730;SDS011;38624;53.242;6.974;2023-08-08T04:27:13;8.90;;;3.00;;
52730;SDS011;38624;53.242;6.974;2023-08-08T04:29:38;5.07;;;2.40;;
52730;SDS011;38624;53.242;6.974;2023-08-08T04:32:04;7.70;;;2.47;;
52730;SDS011;38624;53.242;6.974;2023-08-08T04:34:30;4.83;;;2.30;;
52730;SDS011;38624;53.242;6.974;2023-08-08T04:36:56;4.25;;;2.50;;
52730;SDS011;38624;53.242;6.974;2023-08-08T04:39:21;5.30;;;2.38;;
52730;SDS011;38624;53.242;6.974;2023-08-08T04:41:47;6.70;;;2.55;;
52730;SDS011;38624;53.242;6.974;2023-08-08T04:44:13;8.63;;;2.53;;
52730;SDS011;38624;53.242;6.974;2023-08-08T04:46:38;5.85;;;2.20;;
52730;SDS011;38624;53.242;6.974;2023-08-08T04:49:04;5.10;;;2.30;;
52730;SDS011;38624;53.242;6.974;2023-08-08T04:51:30;5.75;;;2.25;;
52730;SDS011;38624;53.242;6.974;2023-08-08T04:53:55;4.07;;;2.10;;
52730;SDS011;38624;53.242;6.974;2023-08-08T04:56:21;5.60;;;2.40;;
52730;SDS011;38624;53.242;6.974;2023-08-08T04:58:47;9.02;;;2.67;;
52730;SDS011;38624;53.242;6.974;2023-08-08T05:01:12;4.15;;;2.10;;
52730;SDS011;38624;53.242;6.974;2023-08-08T05:03:40;7.20;;;1.98;;
52730;SDS011;38624;53.242;6.974;2023-08-08T05:06:06;7.15;;;2.20;;
52730;SDS011;38624;53.242;6.974;2023-08-08T05:08:32;7.28;;;2.22;;
52730;SDS011;38624;53.242;6.974;2023-08-08T05:10:58;4.78;;;2.20;;
52730;SDS011;38624;53.242;6.974;2023-08-08T05:13:23;10.50;;;2.25;;
52730;SDS011;38624;53.242;6.974;2023-08-08T05:15:49;6.15;;;1.98;;
52730;SDS011;38624;53.242;6.974;2023-08-08T05:18:15;6.45;;;2.10;;
52730;SDS011;38624;53.242;6.974;2023-08-08T05:20:40;8.13;;;2.47;;
52730;SDS011;38624;53.242;6.974;2023-08-08T05:23:06;5.67;;;2.20;;
52730;SDS011;38624;53.242;6.974;2023-08-08T05:25:32;5.97;;;2.20;;
52730;SDS011;38624;53.242;6.974;2023-08-08T05:27:57;5.83;;;2.00;;
52730;SDS011;38624;53.242;6.974;2023-08-08T05:30:24;4.45;;;2.10;;
52730;SDS011;38624;53.242;6.974;2023-08-08T05:32:49;4.53;;;2.08;;
52730;SDS011;38624;53.242;6.974;2023-08-08T05:35:15;10.03;;;2.20;;
52730;SDS011;38624;53.242;6.974;2023-08-08T05:37:41;8.93;;;2.47;;
52730;SDS011;38624;53.242;6.974;2023-08-08T05:40:07;5.40;;;2.22;;
52730;SDS011;38624;53.242;6.974;2023-08-08T05:42:33;4.35;;;1.88;;
52730;SDS011;38624;53.242;6.974;2023-08-08T05:44:58;4.63;;;1.50;;
52730;SDS011;38624;53.242;6.974;2023-08-08T05:47:24;5.00;;;2.33;;
52730;SDS011;38624;53.242;6.974;2023-08-08T05:49:50;4.87;;;2.17;;
52730;SDS011;38624;53.242;6.974;2023-08-08T05:52:16;6.25;;;1.92;;
52730;SDS011;38624;53.242;6.974;2023-08-08T05:54:41;5.90;;;2.00;;
52730;SDS011;38624;53.242;6.974;2023-08-08T05:57:07;9.82;;;1.83;;
52730;SDS011;38624;53.242;6.974;2023-08-08T05:59:33;7.40;;;2.03;;
52730;SDS011;38624;53.242;6.974;2023-08-08T06:01:58;8.17;;;2.00;;
52730;SDS011;38624;53.242;6.974;2023-08-08T06:04:24;7.90;;;1.73;;
52730;SDS011;38624;53.242;6.974;2023-08-08T06:06:50;9.13;;;1.70;;
52730;SDS011;38624;53.242;6.974;2023-08-08T06:09:16;3.43;;;1.40;;
52730;SDS011;38624;53.242;6.974;2023-08-08T06:11:42;7.85;;;1.80;;
52730;SDS011;38624;53.242;6.974;2023-08-08T06:14:08;9.57;;;2.77;;
52730;SDS011;38624;53.242;6.974;2023-08-08T06:16:34;4.68;;;1.27;;
52730;SDS011;38624;53.242;6.974;2023-08-08T06:18:59;8.10;;;1.48;;
52730;SDS011;38624;53.242;6.974;2023-08-08T06:21:25;6.50;;;1.60;;
52730;SDS011;38624;53.242;6.974;2023-08-08T06:23:51;4.95;;;1.70;;
52730;SDS011;38624;53.242;6.974;2023-08-08T06:26:19;3.45;;;1.38;;
52730;SDS011;38624;53.242;6.974;2023-08-08T06:28:46;6.97;;;1.70;;
52730;SDS011;38624;53.242;6.974;2023-08-08T06:31:12;7.65;;;1.75;;
52730;SDS011;38624;53.242;6.974;2023-08-08T06:33:38;7.05;;;1.50;;
52730;SDS011;38624;53.242;6.974;2023-08-08T06:36:04;3.93;;;1.60;;
52730;SDS011;38624;53.242;6.974;2023-08-08T06:38:31;7.75;;;1.65;;
52730;SDS011;38624;53.242;6.974;2023-08-08T06:40:59;3.00;;;1.30;;
52730;SDS011;38624;53.242;6.974;2023-08-08T06:43:26;3.60;;;1.50;;
52730;SDS011;38624;53.242;6.974;2023-08-08T06:45:51;11.07;;;1.98;;
52730;SDS011;38624;53.242;6.974;2023-08-08T06:48:17;3.60;;;1.37;;
52730;SDS011;38624;53.242;6.974;2023-08-08T06:50:43;5.73;;;1.47;;
52730;SDS011;38624;53.242;6.974;2023-08-08T06:53:08;8.63;;;1.43;;
52730;SDS011;38624;53.242;6.974;2023-08-08T06:55:34;2.97;;;1.30;;
52730;SDS011;38624;53.242;6.974;2023-08-08T06:58:00;5.27;;;1.50;;
52730;SDS011;38624;53.242;6.974;2023-08-08T07:00:25;6.67;;;1.50;;
52730;SDS011;38624;53.242;6.974;2023-08-08T07:02:52;6.50;;;1.40;;
52730;SDS011;38624;53.242;6.974;2023-08-08T07:05:18;5.70;;;1.50;;
52730;SDS011;38624;53.242;6.974;2023-08-08T07:07:44;4.27;;;1.60;;
52730;SDS011;38624;53.242;6.974;2023-08-08T07:10:10;6.77;;;1.50;;
52730;SDS011;38624;53.242;6.974;2023-08-08T07:12:37;7.45;;;1.42;;
52730;SDS011;38624;53.242;6.974;2023-08-08T07:15:04;4.85;;;1.55;;
52730;SDS011;38624;53.242;6.974;2023-08-08T07:17:32;8.30;;;1.40;;
52730;SDS011;38624;53.242;6.974;2023-08-08T07:19:58;7.45;;;1.35;;
52730;SDS011;38624;53.242;6.974;2023-08-08T07:22:23;3.43;;;1.30;;
52730;SDS011;38624;53.242;6.974;2023-08-08T07:24:49;4.80;;;1.33;;
52730;SDS011;38624;53.242;6.974;2023-08-08T07:27:15;10.63;;;1.50;;
52730;SDS011;38624;53.242;6.974;2023-08-08T07:29:41;4.87;;;1.40;;
52730;SDS011;38624;53.242;6.974;2023-08-08T07:32:07;6.47;;;1.63;;
52730;SDS011;38624;53.242;6.974;2023-08-08T07:34:33;6.90;;;1.53;;
52730;SDS011;38624;53.242;6.974;2023-08-08T07:36:58;7.37;;;1.40;;
52730;SDS011;38624;53.242;6.974;2023-08-08T07:39:24;10.88;;;1.75;;
52730;SDS011;38624;53.242;6.974;2023-08-08T07:41:51;3.42;;;1.10;;
52730;SDS011;38624;53.242;6.974;2023-08-08T07:44:17;5.93;;;1.20;;
52730;SDS011;38624;53.242;6.974;2023-08-08T07:46:42;2.87;;;1.00;;
52730;SDS011;38624;53.242;6.974;2023-08-08T07:49:08;4.13;;;1.20;;
52730;SDS011;38624;53.242;6.974;2023-08-08T07:51:34;5.00;;;1.20;;
52730;SDS011;38624;53.242;6.974;2023-08-08T07:54:00;2.55;;;1.08;;
52730;SDS011;38624;53.242;6.974;2023-08-08T07:56:26;1.60;;;0.80;;
52730;SDS011;38624;53.242;6.974;2023-08-08T07:58:52;3.47;;;1.40;;
52730;SDS011;38624;53.242;6.974;2023-08-08T08:01:18;5.50;;;1.40;;
52730;SDS011;38624;53.242;6.974;2023-08-08T08:03:44;4.27;;;1.23;;
52730;SDS011;38624;53.242;6.974;2023-08-08T08:06:09;5.07;;;1.23;;
52730;SDS011;38624;53.242;6.974;2023-08-08T08:08:36;2.67;;;1.10;;
52730;SDS011;38624;53.242;6.974;2023-08-08T08:11:02;5.03;;;0.90;;
52730;SDS011;38624;53.242;6.974;2023-08-08T08:13:27;5.70;;;1.10;;
52730;SDS011;38624;53.242;6.974;2023-08-08T08:15:53;5.07;;;1.27;;
52730;SDS011;38624;53.242;6.974;2023-08-08T08:18:19;5.60;;;1.47;;
52730;SDS011;38624;53.242;6.974;2023-08-08T08:20:45;16.25;;;2.85;;
52730;SDS011;38624;53.242;6.974;2023-08-08T08:23:12;4.50;;;1.20;;
52730;SDS011;38624;53.242;6.974;2023-08-08T08:25:38;5.03;;;1.15;;
52730;SDS011;38624;53.242;6.974;2023-08-08T08:28:03;5.50;;;0.97;;
52730;SDS011;38624;53.242;6.974;2023-08-08T08:30:29;3.87;;;1.03;;
52730;SDS011;38624;53.242;6.974;2023-08-08T08:32:55;2.37;;;1.50;;
52730;SDS011;38624;53.242;6.974;2023-08-08T08:35:24;4.53;;;1.05;;
52730;SDS011;38624;53.242;6.974;2023-08-08T08:37:50;4.95;;;1.15;;
52730;SDS011;38624;53.242;6.974;2023-08-08T08:40:16;4.70;;;1.25;;
52730;SDS011;38624;53.242;6.974;2023-08-08T08:42:42;3.47;;;1.07;;
52730;SDS011;38624;53.242;6.974;2023-08-08T08:45:10;3.60;;;1.10;;
52730;SDS011;38624;53.242;6.974;2023-08-08T08:47:37;10.00;;;1.30;;
52730;SDS011;38624;53.242;6.974;2023-08-08T08:50:05;5.68;;;1.38;;
52730;SDS011;38624;53.242;6.974;2023-08-08T08:52:31;3.92;;;1.00;;
52730;SDS011;38624;53.242;6.974;2023-08-08T08:54:57;4.88;;;1.10;;
52730;SDS011;38624;53.242;6.974;2023-08-08T08:57:23;2.70;;;0.67;;
52730;SDS011;38624;53.242;6.974;2023-08-08T08:59:50;4.78;;;1.40;;
52730;SDS011;38624;53.242;6.974;2023-08-08T09:04:43;6.60;;;1.30;;
52730;SDS011;38624;53.242;6.974;2023-08-08T09:07:10;5.78;;;1.40;;
52730;SDS011;38624;53.242;6.974;2023-08-08T09:09:37;6.00;;;1.60;;
52730;SDS011;38624;53.242;6.974;2023-08-08T09:12:03;5.38;;;1.40;;
52730;SDS011;38624;53.242;6.974;2023-08-08T09:14:30;5.47;;;1.50;;
52730;SDS011;38624;53.242;6.974;2023-08-08T09:16:56;8.10;;;1.70;;
52730;SDS011;38624;53.242;6.974;2023-08-08T09:19:22;6.83;;;1.30;;
52730;SDS011;38624;53.242;6.974;2023-08-08T09:21:49;4.55;;;1.25;;
52730;SDS011;38624;53.242;6.974;2023-08-08T09:24:16;7.97;;;1.92;;
52730;SDS011;38624;53.242;6.974;2023-08-08T09:26:43;5.40;;;1.23;;
52730;SDS011;38624;53.242;6.974;2023-08-08T09:29:09;8.35;;;1.60;;
52730;SDS011;38624;53.242;6.974;2023-08-08T09:31:37;4.32;;;0.95;;
52730;SDS011;38624;53.242;6.974;2023-08-08T09:34:04;6.03;;;1.20;;
52730;SDS011;38624;53.242;6.974;2023-08-08T09:36:30;6.82;;;1.30;;
52730;SDS011;38624;53.242;6.974;2023-08-08T09:38:56;2.87;;;1.00;;
52730;SDS011;38624;53.242;6.974;2023-08-08T09:41:22;5.30;;;0.90;;
52730;SDS011;38624;53.242;6.974;2023-08-08T09:43:49;5.18;;;1.58;;
52730;SDS011;38624;53.242;6.974;2023-08-08T09:46:16;5.25;;;1.23;;
52730;SDS011;38624;53.242;6.974;2023-08-08T09:48:43;1.10;;;0.75;;
52730;SDS011;38624;53.242;6.974;2023-08-08T09:51:09;6.68;;;1.33;;
52730;SDS011;38624;53.242;6.974;2023-08-08T09:53:35;7.50;;;1.10;;
52730;SDS011;38624;53.242;6.974;2023-08-08T09:56:05;2.40;;;1.00;;
52730;SDS011;38624;53.242;6.974;2023-08-08T09:58:31;4.00;;;1.10;;
52730;SDS011;38624;53.242;6.974;2023-08-08T10:00:57;4.85;;;1.05;;
52730;SDS011;38624;53.242;6.974;2023-08-08T10:03:23;3.55;;;1.00;;
52730;SDS011;38624;53.242;6.974;2023-08-08T10:05:50;4.10;;;1.00;;
52730;SDS011;38624;53.242;6.974;2023-08-08T10:08:15;4.00;;;1.10;;
52730;SDS011;38624;53.242;6.974;2023-08-08T10:10:46;4.80;;;1.00;;
52730;SDS011;38624;53.242;6.974;2023-08-08T10:13:23;1.95;;;0.88;;
52730;SDS011;38624;53.242;6.974;2023-08-08T10:15:50;2.40;;;0.82;;
52730;SDS011;38624;53.242;6.974;2023-08-08T10:18:17;5.05;;;1.05;;
52730;SDS011;38624;53.242;6.974;2023-08-08T10:20:46;3.65;;;1.02;;
52730;SDS011;38624;53.242;6.974;2023-08-08T10:23:14;4.22;;;0.90;;
52730;SDS011;38624;53.242;6.974;2023-08-08T10:25:44;5.68;;;0.98;;
52730;SDS011;38624;53.242;6.974;2023-08-08T10:28:12;3.50;;;0.85;;
52730;SDS011;38624;53.242;6.974;2023-08-08T10:30:52;3.63;;;1.00;;
52730;SDS011;38624;53.242;6.974;2023-08-08T10:33:21;1.38;;;0.80;;
52730;SDS011;38624;53.242;6.974;2023-08-08T10:38:25;5.00;;;1.20;;
52730;SDS011;38624;53.242;6.974;2023-08-08T10:40:58;4.25;;;1.10;;
52730;SDS011;38624;53.242;6.974;2023-08-08T10:43:25;2.65;;;0.88;;
52730;SDS011;38624;53.242;6.974;2023-08-08T10:45:56;5.13;;;1.25;;
52730;SDS011;38624;53.242;6.974;2023-08-08T10:48:23;4.57;;;1.30;;
52730;SDS011;38624;53.242;6.974;2023-08-08T10:50:49;4.97;;;1.20;;
52730;SDS011;38624;53.242;6.974;2023-08-08T10:53:15;6.63;;;1.50;;
52730;SDS011;38624;53.242;6.974;2023-08-08T10:55:41;4.50;;;1.10;;
52730;SDS011;38624;53.242;6.974;2023-08-08T10:58:13;2.83;;;0.95;;
52730;SDS011;38624;53.242;6.974;2023-08-08T11:00:41;3.92;;;1.20;;
52730;SDS011;38624;53.242;6.974;2023-08-08T11:05:34;4.65;;;1.25;;
52730;SDS011;38624;53.242;6.974;2023-08-08T11:08:02;5.25;;;1.35;;
52730;SDS011;38624;53.242;6.974;2023-08-08T11:10:30;2.33;;;0.95;;
52730;SDS011;38624;53.242;6.974;2023-08-08T11:13:04;7.50;;;1.45;;
52730;SDS011;38624;53.242;6.974;2023-08-08T11:15:33;2.65;;;0.90;;
52730;SDS011;38624;53.242;6.974;2023-08-08T11:20:28;3.67;;;0.98;;
52730;SDS011;38624;53.242;6.974;2023-08-08T11:22:56;8.38;;;1.67;;
52730;SDS011;38624;53.242;6.974;2023-08-08T11:25:25;5.70;;;1.38;;
52730;SDS011;38624;53.242;6.974;2023-08-08T11:27:52;3.63;;;1.10;;
52730;SDS011;38624;53.242;6.974;2023-08-08T11:30:18;4.00;;;1.13;;
52730;SDS011;38624;53.242;6.974;2023-08-08T11:32:45;5.35;;;2.00;;
52730;SDS011;38624;53.242;6.974;2023-08-08T11:35:12;9.35;;;1.90;;
52730;SDS011;38624;53.242;6.974;2023-08-08T11:37:41;8.80;;;3.55;;
52730;SDS011;38624;53.242;6.974;2023-08-08T11:40:07;8.05;;;3.60;;
52730;SDS011;38624;53.242;6.974;2023-08-08T11:42:34;10.85;;;4.50;;
52730;SDS011;38624;53.242;6.974;2023-08-08T11:45:00;4.43;;;1.30;;
52730;SDS011;38624;53.242;6.974;2023-08-08T11:47:26;6.07;;;1.73;;
52730;SDS011;38624;53.242;6.974;2023-08-08T11:52:19;5.07;;;1.10;;
52730;SDS011;38624;53.242;6.974;2023-08-08T11:54:50;5.03;;;1.10;;
52730;SDS011;38624;53.242;6.974;2023-08-08T11:57:17;3.58;;;0.95;;
52730;SDS011;38624;53.242;6.974;2023-08-08T11:59:43;3.60;;;1.10;;
52730;SDS011;38624;53.242;6.974;2023-08-08T12:02:09;5.40;;;1.10;;
52730;SDS011;38624;53.242;6.974;2023-08-08T12:07:01;3.45;;;1.40;;
52730;SDS011;38624;53.242;6.974;2023-08-08T12:09:32;4.78;;;1.40;;
52730;SDS011;38624;53.242;6.974;2023-08-08T12:12:01;4.88;;;1.10;;
52730;SDS011;38624;53.242;6.974;2023-08-08T12:14:27;6.35;;;1.45;;
52730;SDS011;38624;53.242;6.974;2023-08-08T12:16:53;4.50;;;1.10;;
52730;SDS011;38624;53.242;6.974;2023-08-08T12:19:22;7.70;;;1.30;;
52730;SDS011;38624;53.242;6.974;2023-08-08T12:21:50;3.75;;;0.95;;
52730;SDS011;38624;53.242;6.974;2023-08-08T12:26:45;5.30;;;1.27;;
52730;SDS011;38624;53.242;6.974;2023-08-08T12:29:11;7.17;;;1.17;;
52730;SDS011;38624;53.242;6.974;2023-08-08T12:31:37;3.63;;;1.00;;
52730;SDS011;38624;53.242;6.974;2023-08-08T12:34:03;5.37;;;1.47;;
52730;SDS011;38624;53.242;6.974;2023-08-08T12:36:29;3.92;;;1.40;;
52730;SDS011;38624;53.242;6.974;2023-08-08T12:38:55;5.90;;;1.80;;
52730;SDS011;38624;53.242;6.974;2023-08-08T12:41:22;2.93;;;0.90;;
52730;SDS011;38624;53.242;6.974;2023-08-08T12:43:50;6.20;;;1.35;;
52730;SDS011;38624;53.242;6.974;2023-08-08T12:46:16;3.42;;;0.90;;
52730;SDS011;38624;53.242;6.974;2023-08-08T12:48:42;3.83;;;0.97;;
52730;SDS011;38624;53.242;6.974;2023-08-08T12:51:10;4.93;;;0.90;;
52730;SDS011;38624;53.242;6.974;2023-08-08T12:53:36;6.13;;;1.50;;
52730;SDS011;38624;53.242;6.974;2023-08-08T12:56:02;8.67;;;1.50;;
52730;SDS011;38624;53.242;6.974;2023-08-08T12:58:28;7.55;;;1.48;;
52730;SDS011;38624;53.242;6.974;2023-08-08T13:00:53;2.53;;;0.87;;
52730;SDS011;38624;53.242;6.974;2023-08-08T13:03:19;7.10;;;1.10;;
52730;SDS011;38624;53.242;6.974;2023-08-08T13:05:45;8.03;;;1.30;;
52730;SDS011;38624;53.242;6.974;2023-08-08T13:08:11;5.10;;;1.27;;
52730;SDS011;38624;53.242;6.974;2023-08-08T13:13:04;5.25;;;1.17;;
52730;SDS011;38624;53.242;6.974;2023-08-08T13:15:30;4.57;;;0.88;;
52730;SDS011;38624;53.242;6.974;2023-08-08T13:17:56;5.83;;;1.00;;
52730;SDS011;38624;53.242;6.974;2023-08-08T13:20:22;6.80;;;1.40;;
52730;SDS011;38624;53.242;6.974;2023-08-08T13:22:50;5.05;;;1.20;;
52730;SDS011;38624;53.242;6.974;2023-08-08T13:25:16;3.43;;;1.07;;
52730;SDS011;38624;53.242;6.974;2023-08-08T13:27:43;7.57;;;1.50;;
52730;SDS011;38624;53.242;6.974;2023-08-08T13:30:10;4.95;;;1.20;;
52730;SDS011;38624;53.242;6.974;2023-08-08T13:32:36;4.00;;;1.10;;
52730;SDS011;38624;53.242;6.974;2023-08-08T13:35:01;3.00;;;1.00;;
52730;SDS011;38624;53.242;6.974;2023-08-08T13:37:27;5.20;;;1.10;;
52730;SDS011;38624;53.242;6.974;2023-08-08T13:39:54;3.67;;;1.00;;
52730;SDS011;38624;53.242;6.974;2023-08-08T13:42:19;3.50;;;1.10;;
52730;SDS011;38624;53.242;6.974;2023-08-08T13:44:45;6.63;;;1.30;;
52730;SDS011;38624;53.242;6.974;2023-08-08T13:47:11;3.27;;;1.00;;
52730;SDS011;38624;53.242;6.974;2023-08-08T13:49:37;4.53;;;1.00;;
52730;SDS011;38624;53.242;6.974;2023-08-08T13:52:02;4.57;;;1.03;;
52730;SDS011;38624;53.242;6.974;2023-08-08T13:54:28;6.03;;;1.20;;
52730;SDS011;38624;53.242;6.974;2023-08-08T13:56:54;2.63;;;1.20;;
52730;SDS011;38624;53.242;6.974;2023-08-08T13:59:19;6.17;;;1.37;;
52730;SDS011;38624;53.242;6.974;2023-08-08T14:01:45;4.87;;;1.30;;
52730;SDS011;38624;53.242;6.974;2023-08-08T14:04:11;5.57;;;1.23;;
52730;SDS011;38624;53.242;6.974;2023-08-08T14:06:36;8.67;;;1.40;;
52730;SDS011;38624;53.242;6.974;2023-08-08T14:09:02;6.53;;;1.47;;
52730;SDS011;38624;53.242;6.974;2023-08-08T14:13:54;5.00;;;1.33;;
52730;SDS011;38624;53.242;6.974;2023-08-08T14:16:20;10.60;;;1.33;;
52730;SDS011;38624;53.242;6.974;2023-08-08T14:18:46;3.97;;;1.30;;
52730;SDS011;38624;53.242;6.974;2023-08-08T14:21:11;5.30;;;1.33;;
52730;SDS011;38624;53.242;6.974;2023-08-08T14:23:37;3.30;;;1.00;;
52730;SDS011;38624;53.242;6.974;2023-08-08T14:26:03;4.03;;;1.23;;
52730;SDS011;38624;53.242;6.974;2023-08-08T14:28:28;3.77;;;2.00;;
52730;SDS011;38624;53.242;6.974;2023-08-08T14:30:54;4.83;;;1.20;;
52730;SDS011;38624;53.242;6.974;2023-08-08T14:33:20;6.20;;;1.20;;
52730;SDS011;38624;53.242;6.974;2023-08-08T14:35:45;7.43;;;1.20;;
52730;SDS011;38624;53.242;6.974;2023-08-08T14:38:11;4.87;;;1.20;;
52730;SDS011;38624;53.242;6.974;2023-08-08T14:40:37;6.03;;;1.10;;
52730;SDS011;38624;53.242;6.974;2023-08-08T14:43:03;10.23;;;1.37;;
52730;SDS011;38624;53.242;6.974;2023-08-08T14:45:34;5.45;;;1.00;;
52730;SDS011;38624;53.242;6.974;2023-08-08T14:48:02;5.85;;;1.38;;
52730;SDS011;38624;53.242;6.974;2023-08-08T14:50:29;4.55;;;0.90;;
52730;SDS011;38624;53.242;6.974;2023-08-08T14:52:54;2.90;;;0.87;;
52730;SDS011;38624;53.242;6.974;2023-08-08T14:55:20;4.37;;;1.10;;
52730;SDS011;38624;53.242;6.974;2023-08-08T14:57:46;7.17;;;1.10;;
52730;SDS011;38624;53.242;6.974;2023-08-08T15:00:11;10.03;;;1.20;;
52730;SDS011;38624;53.242;6.974;2023-08-08T15:02:38;4.32;;;0.98;;
52730;SDS011;38624;53.242;6.974;2023-08-08T15:05:04;1.97;;;0.67;;
52730;SDS011;38624;53.242;6.974;2023-08-08T15:07:29;5.65;;;1.20;;
52730;SDS011;38624;53.242;6.974;2023-08-08T15:09:55;6.67;;;1.10;;